PAA101 KMMH-KLAX
Flight info
| Callsign | PAA101 |
|---|---|
| Flight time | 0h 51m |
| Altitude | 35000 |
| Route | OENNS1 EHF FIM SADDE8 |
| Aircraft | A21N/M-SDE3FGHIRWY/LB1 |
Departure
| Time | 2026-04-21 16:43 |
|---|---|
| Airport | Mammoth Yosemite Airport (KMMH) |
Arrival
| Time | 2026-04-21 17:35 |
|---|---|
| Airport | Los Angeles International Airport (KLAX) |
| Time | Latitude | Longitude | Altitude | Speed | Heading |
|---|---|---|---|---|---|
| 2026-04-21 16:24 | 37.62659 | -118.84145 | 7143 ft | 0 kts | 54° |
| 2026-04-21 16:36 | 37.62650 | -118.84160 | 7145 ft | 2 kts | 54° |
| 2026-04-21 16:36 | 37.62640 | -118.84175 | 7146 ft | 2 kts | 34° |
| 2026-04-21 16:36 | 37.62628 | -118.84185 | 7146 ft | 2 kts | 56° |
| 2026-04-21 16:37 | 37.62626 | -118.84201 | 7147 ft | 2 kts | 105° |
| 2026-04-21 16:37 | 37.62632 | -118.84219 | 7148 ft | 2 kts | 108° |
| 2026-04-21 16:37 | 37.62635 | -118.84233 | 7148 ft | 0 kts | 107° |
| 2026-04-21 16:37 | 37.62635 | -118.84237 | 7149 ft | 0 kts | 110° |
| 2026-04-21 16:39 | 37.62628 | -118.84212 | 7148 ft | 4 kts | 116° |
| 2026-04-21 16:39 | 37.62602 | -118.84197 | 7148 ft | 3 kts | 190° |
| 2026-04-21 16:39 | 37.62592 | -118.84203 | 7149 ft | 0 kts | 217° |
| 2026-04-21 16:40 | 37.62589 | -118.84213 | 7149 ft | 4 kts | 262° |
| 2026-04-21 16:40 | 37.62606 | -118.84283 | 7151 ft | 10 kts | 289° |
| 2026-04-21 16:40 | 37.62632 | -118.84386 | 7155 ft | 13 kts | 288° |
| 2026-04-21 16:40 | 37.62664 | -118.84506 | 7159 ft | 14 kts | 288° |
| 2026-04-21 16:41 | 37.62696 | -118.84621 | 7161 ft | 13 kts | 289° |
| 2026-04-21 16:41 | 37.62726 | -118.84731 | 7163 ft | 12 kts | 288° |
| 2026-04-21 16:41 | 37.62753 | -118.84828 | 7166 ft | 10 kts | 289° |
| 2026-04-21 16:41 | 37.62777 | -118.84915 | 7167 ft | 10 kts | 288° |
| 2026-04-21 16:42 | 37.62787 | -118.84975 | 7168 ft | 2 kts | 237° |
| 2026-04-21 16:42 | 37.62772 | -118.84984 | 7169 ft | 6 kts | 206° |
| 2026-04-21 16:42 | 37.62731 | -118.85003 | 7170 ft | 5 kts | 189° |
| 2026-04-21 16:42 | 37.62707 | -118.84978 | 7170 ft | 0 kts | 108° |
| 2026-04-21 16:43 | 37.62696 | -118.84930 | 7169 ft | 32 kts | 106° |
| 2026-04-21 16:43 | 37.62524 | -118.84306 | 7154 ft | 115 kts | 109° |
| 2026-04-21 16:43 | 37.62189 | -118.83082 | 7216 ft | 169 kts | 110° |
| 2026-04-21 16:43 | 37.61886 | -118.81669 | 7991 ft | 169 kts | 105° |
| 2026-04-21 16:44 | 37.61744 | -118.80276 | 8873 ft | 163 kts | 102° |
| 2026-04-21 16:44 | 37.61623 | -118.78861 | 9384 ft | 167 kts | 103° |
| 2026-04-21 16:44 | 37.61485 | -118.77342 | 9714 ft | 181 kts | 103° |
| 2026-04-21 16:44 | 37.61333 | -118.75701 | 10030 ft | 197 kts | 102° |
| 2026-04-21 16:45 | 37.61176 | -118.73929 | 10337 ft | 212 kts | 103° |
| 2026-04-21 16:45 | 37.61005 | -118.72028 | 10650 ft | 227 kts | 102° |
| 2026-04-21 16:45 | 37.60820 | -118.69974 | 10944 ft | 245 kts | 103° |
| 2026-04-21 16:45 | 37.60418 | -118.67818 | 11202 ft | 262 kts | 115° |
| 2026-04-21 16:46 | 37.59671 | -118.65715 | 11820 ft | 264 kts | 123° |
| 2026-04-21 16:46 | 37.58820 | -118.63674 | 12578 ft | 265 kts | 124° |
| 2026-04-21 16:46 | 37.57956 | -118.61649 | 13262 ft | 267 kts | 125° |
| 2026-04-21 16:46 | 37.57068 | -118.59574 | 13911 ft | 270 kts | 126° |
| 2026-04-21 16:47 | 37.56175 | -118.57481 | 14580 ft | 272 kts | 126° |
| 2026-04-21 16:47 | 37.55288 | -118.55398 | 15204 ft | 275 kts | 127° |
| 2026-04-21 16:47 | 37.54380 | -118.53271 | 15782 ft | 279 kts | 127° |
| 2026-04-21 16:47 | 37.53463 | -118.51126 | 16390 ft | 281 kts | 127° |
| 2026-04-21 16:48 | 37.52426 | -118.49080 | 16782 ft | 269 kts | 142° |
| 2026-04-21 16:48 | 37.50983 | -118.47750 | 16948 ft | 254 kts | 161° |
| 2026-04-21 16:48 | 37.49282 | -118.47204 | 16965 ft | 259 kts | 179° |
| 2026-04-21 16:48 | 37.47419 | -118.47478 | 17027 ft | 279 kts | 194° |
| 2026-04-21 16:49 | 37.45518 | -118.48090 | 17334 ft | 291 kts | 193° |
| 2026-04-21 16:49 | 37.43496 | -118.48731 | 17584 ft | 305 kts | 193° |
| 2026-04-21 16:49 | 37.41414 | -118.49397 | 17838 ft | 318 kts | 194° |
| 2026-04-21 16:49 | 37.39219 | -118.50106 | 18099 ft | 331 kts | 194° |
| 2026-04-21 16:50 | 37.36933 | -118.50855 | 18339 ft | 343 kts | 194° |
| 2026-04-21 16:50 | 37.34670 | -118.51891 | 18637 ft | 352 kts | 206° |
| 2026-04-21 16:50 | 37.32692 | -118.53729 | 19105 ft | 360 kts | 220° |
| 2026-04-21 16:50 | 37.31165 | -118.56260 | 19603 ft | 371 kts | 235° |
| 2026-04-21 16:51 | 37.30242 | -118.59287 | 20134 ft | 383 kts | 248° |
| 2026-04-21 16:51 | 37.29580 | -118.62537 | 20618 ft | 385 kts | 248° |
| 2026-04-21 16:51 | 37.28882 | -118.65752 | 21070 ft | 382 kts | 243° |
| 2026-04-21 16:51 | 37.27646 | -118.68632 | 21607 ft | 369 kts | 227° |
| 2026-04-21 16:52 | 37.25903 | -118.70882 | 22158 ft | 359 kts | 214° |
| 2026-04-21 16:52 | 37.23780 | -118.72440 | 22625 ft | 355 kts | 201° |
| 2026-04-21 16:52 | 37.21395 | -118.73265 | 23077 ft | 355 kts | 192° |
| 2026-04-21 16:52 | 37.18967 | -118.73828 | 23374 ft | 360 kts | 192° |
| 2026-04-21 16:53 | 37.16483 | -118.74390 | 23573 ft | 366 kts | 192° |
| 2026-04-21 16:53 | 37.13981 | -118.74953 | 24327 ft | 358 kts | 192° |
| 2026-04-21 16:53 | 37.11594 | -118.75476 | 25224 ft | 347 kts | 191° |
| 2026-04-21 16:53 | 37.09265 | -118.75987 | 26117 ft | 335 kts | 192° |
| 2026-04-21 16:54 | 37.07029 | -118.76464 | 27011 ft | 324 kts | 192° |
| 2026-04-21 16:54 | 37.04856 | -118.76933 | 27885 ft | 312 kts | 192° |
| 2026-04-21 16:54 | 37.02780 | -118.77376 | 28747 ft | 300 kts | 193° |
| 2026-04-21 16:54 | 37.00736 | -118.77818 | 29314 ft | 298 kts | 193° |
| 2026-04-21 16:55 | 36.98676 | -118.78268 | 29474 ft | 306 kts | 192° |
| 2026-04-21 16:55 | 36.96553 | -118.78725 | 29750 ft | 310 kts | 192° |
| 2026-04-21 16:55 | 36.94441 | -118.79177 | 30121 ft | 312 kts | 192° |
| 2026-04-21 16:55 | 36.92294 | -118.79634 | 30506 ft | 313 kts | 193° |
| 2026-04-21 16:56 | 36.90134 | -118.80098 | 30820 ft | 316 kts | 193° |
| 2026-04-21 16:56 | 36.87933 | -118.80567 | 31153 ft | 319 kts | 194° |
| 2026-04-21 16:56 | 36.85759 | -118.81024 | 31447 ft | 323 kts | 194° |
| 2026-04-21 16:56 | 36.83533 | -118.81502 | 31772 ft | 325 kts | 193° |
| 2026-04-21 16:57 | 36.81302 | -118.81973 | 32110 ft | 328 kts | 194° |
| 2026-04-21 16:57 | 36.79037 | -118.82456 | 32276 ft | 334 kts | 193° |
| 2026-04-21 16:57 | 36.76727 | -118.82950 | 32425 ft | 341 kts | 193° |
| 2026-04-21 16:57 | 36.74359 | -118.83452 | 32573 ft | 347 kts | 193° |
| 2026-04-21 16:58 | 36.71960 | -118.83961 | 32717 ft | 353 kts | 194° |
| 2026-04-21 16:58 | 36.69528 | -118.84476 | 32854 ft | 359 kts | 194° |
| 2026-04-21 16:58 | 36.67049 | -118.85002 | 32989 ft | 364 kts | 194° |
| 2026-04-21 16:58 | 36.64534 | -118.85538 | 33117 ft | 370 kts | 194° |
| 2026-04-21 16:59 | 36.61971 | -118.86081 | 33260 ft | 374 kts | 194° |
| 2026-04-21 16:59 | 36.59396 | -118.86623 | 33478 ft | 377 kts | 194° |
| 2026-04-21 16:59 | 36.56815 | -118.87167 | 33728 ft | 379 kts | 194° |
| 2026-04-21 16:59 | 36.54207 | -118.87721 | 33975 ft | 380 kts | 194° |
| 2026-04-21 17:00 | 36.51593 | -118.88277 | 34209 ft | 381 kts | 195° |
| 2026-04-21 17:00 | 36.48983 | -118.88824 | 34415 ft | 382 kts | 195° |
| 2026-04-21 17:00 | 36.47237 | -118.89191 | 34509 ft | 384 kts | 195° |
| 2026-04-21 17:00 | 36.43704 | -118.89944 | 34730 ft | 387 kts | 195° |
| 2026-04-21 17:01 | 36.41063 | -118.90498 | 34936 ft | 388 kts | 194° |
| 2026-04-21 17:01 | 36.35690 | -118.91630 | 35012 ft | 395 kts | 195° |
| 2026-04-21 17:02 | 36.30281 | -118.92767 | 35021 ft | 398 kts | 195° |
| 2026-04-21 17:02 | 36.24804 | -118.93916 | 35023 ft | 396 kts | 194° |
| 2026-04-21 17:03 | 36.19383 | -118.95051 | 35020 ft | 397 kts | 195° |
| 2026-04-21 17:03 | 36.13940 | -118.96191 | 35154 ft | 397 kts | 195° |
| 2026-04-21 17:04 | 36.08499 | -118.97326 | 35041 ft | 397 kts | 195° |
| 2026-04-21 17:04 | 36.03062 | -118.98460 | 35030 ft | 397 kts | 195° |
| 2026-04-21 17:05 | 35.97642 | -118.99593 | 35034 ft | 395 kts | 195° |
| 2026-04-21 17:05 | 35.92210 | -119.00723 | 35029 ft | 396 kts | 195° |
| 2026-04-21 17:06 | 35.86771 | -119.01847 | 35033 ft | 397 kts | 195° |
| 2026-04-21 17:06 | 35.81325 | -119.02969 | 35032 ft | 397 kts | 195° |
| 2026-04-21 17:07 | 35.75859 | -119.04098 | 35031 ft | 398 kts | 195° |
| 2026-04-21 17:07 | 35.70410 | -119.05222 | 35022 ft | 399 kts | 195° |
| 2026-04-21 17:08 | 35.64959 | -119.06345 | 35025 ft | 398 kts | 195° |
| 2026-04-21 17:08 | 35.59483 | -119.07475 | 35021 ft | 399 kts | 196° |
| 2026-04-21 17:09 | 35.51154 | -119.08678 | 35017 ft | 405 kts | 190° |
| 2026-04-21 17:09 | 35.45483 | -119.08697 | 35021 ft | 411 kts | 186° |
| 2026-04-21 17:10 | 35.39796 | -119.08048 | 35021 ft | 416 kts | 181° |
| 2026-04-21 17:10 | 35.34057 | -119.06958 | 35011 ft | 418 kts | 180° |
| 2026-04-21 17:11 | 35.28293 | -119.05859 | 35018 ft | 418 kts | 180° |
| 2026-04-21 17:11 | 35.22570 | -119.04761 | 35011 ft | 418 kts | 180° |
| 2026-04-21 17:12 | 35.16810 | -119.03652 | 35018 ft | 419 kts | 180° |
| 2026-04-21 17:12 | 35.11092 | -119.02549 | 34722 ft | 413 kts | 180° |
| 2026-04-21 17:13 | 35.08254 | -119.02001 | 33954 ft | 414 kts | 180° |
| 2026-04-21 17:13 | 35.05407 | -119.01462 | 32919 ft | 419 kts | 180° |
| 2026-04-21 17:13 | 35.02545 | -119.00924 | 31881 ft | 424 kts | 179° |
| 2026-04-21 17:13 | 34.99603 | -119.00366 | 30882 ft | 426 kts | 179° |
| 2026-04-21 17:14 | 34.96679 | -118.99809 | 29905 ft | 427 kts | 178° |
| 2026-04-21 17:14 | 34.93745 | -118.99249 | 29029 ft | 425 kts | 178° |
| 2026-04-21 17:14 | 34.90868 | -118.98691 | 28147 ft | 424 kts | 178° |
| 2026-04-21 17:14 | 34.87962 | -118.98132 | 27138 ft | 426 kts | 178° |
| 2026-04-21 17:15 | 34.85027 | -118.97571 | 26257 ft | 428 kts | 178° |
| 2026-04-21 17:15 | 34.82075 | -118.97009 | 25647 ft | 434 kts | 178° |
| 2026-04-21 17:15 | 34.79065 | -118.96434 | 24982 ft | 436 kts | 178° |
| 2026-04-21 17:15 | 34.76082 | -118.95864 | 24173 ft | 435 kts | 177° |
| 2026-04-21 17:16 | 34.73094 | -118.95290 | 23418 ft | 430 kts | 178° |
| 2026-04-21 17:16 | 34.70159 | -118.94726 | 22640 ft | 426 kts | 177° |
| 2026-04-21 17:16 | 34.67275 | -118.94173 | 21852 ft | 422 kts | 177° |
| 2026-04-21 17:16 | 34.64373 | -118.93618 | 21148 ft | 416 kts | 177° |
| 2026-04-21 17:17 | 34.61557 | -118.93077 | 20384 ft | 413 kts | 177° |
| 2026-04-21 17:17 | 34.58755 | -118.92543 | 19612 ft | 409 kts | 177° |
| 2026-04-21 17:17 | 34.55938 | -118.92007 | 18894 ft | 405 kts | 177° |
| 2026-04-21 17:17 | 34.53193 | -118.91482 | 18297 ft | 397 kts | 177° |
| 2026-04-21 17:18 | 34.50493 | -118.90968 | 17672 ft | 391 kts | 177° |
| 2026-04-21 17:18 | 34.47821 | -118.90461 | 17086 ft | 385 kts | 177° |
| 2026-04-21 17:18 | 34.45200 | -118.89962 | 16502 ft | 380 kts | 177° |
| 2026-04-21 17:18 | 34.42604 | -118.89468 | 15927 ft | 374 kts | 177° |
| 2026-04-21 17:19 | 34.40073 | -118.88990 | 15372 ft | 369 kts | 177° |
| 2026-04-21 17:19 | 34.37566 | -118.88496 | 15037 ft | 359 kts | 176° |
| 2026-04-21 17:19 | 34.35132 | -118.87871 | 14806 ft | 356 kts | 172° |
| 2026-04-21 17:19 | 34.32744 | -118.87095 | 14034 ft | 362 kts | 169° |
| 2026-04-21 17:20 | 34.30317 | -118.86214 | 13101 ft | 367 kts | 168° |
| 2026-04-21 17:20 | 34.27884 | -118.85315 | 12444 ft | 360 kts | 168° |
| 2026-04-21 17:20 | 34.25532 | -118.84441 | 12067 ft | 349 kts | 168° |
| 2026-04-21 17:20 | 34.23247 | -118.83591 | 11970 ft | 331 kts | 168° |
| 2026-04-21 17:21 | 34.21115 | -118.82797 | 11954 ft | 312 kts | 169° |
| 2026-04-21 17:21 | 34.19106 | -118.82052 | 11951 ft | 294 kts | 169° |
| 2026-04-21 17:21 | 34.17200 | -118.81349 | 11949 ft | 277 kts | 169° |
| 2026-04-21 17:21 | 34.15379 | -118.80682 | 11915 ft | 274 kts | 170° |
| 2026-04-21 17:22 | 34.13552 | -118.80020 | 11825 ft | 272 kts | 170° |
| 2026-04-21 17:22 | 34.11728 | -118.79357 | 11795 ft | 272 kts | 169° |
| 2026-04-21 17:22 | 34.09915 | -118.78697 | 11790 ft | 272 kts | 169° |
| 2026-04-21 17:22 | 34.08105 | -118.78036 | 11771 ft | 272 kts | 169° |
| 2026-04-21 17:23 | 34.06292 | -118.77346 | 11760 ft | 274 kts | 165° |
| 2026-04-21 17:23 | 34.04670 | -118.76070 | 11378 ft | 293 kts | 140° |
| 2026-04-21 17:23 | 34.03635 | -118.73911 | 10963 ft | 309 kts | 112° |
| 2026-04-21 17:23 | 34.03301 | -118.71328 | 10607 ft | 313 kts | 102° |
| 2026-04-21 17:24 | 34.03104 | -118.68712 | 10254 ft | 310 kts | 101° |
| 2026-04-21 17:24 | 34.02909 | -118.66165 | 10003 ft | 305 kts | 101° |
| 2026-04-21 17:24 | 34.02694 | -118.63624 | 9660 ft | 305 kts | 101° |
| 2026-04-21 17:24 | 34.02464 | -118.61091 | 9288 ft | 303 kts | 101° |
| 2026-04-21 17:25 | 34.02232 | -118.58584 | 8942 ft | 296 kts | 101° |
| 2026-04-21 17:25 | 34.02010 | -118.56165 | 8626 ft | 288 kts | 101° |
| 2026-04-21 17:25 | 34.01788 | -118.53801 | 8275 ft | 281 kts | 101° |
| 2026-04-21 17:25 | 34.01571 | -118.51489 | 7917 ft | 274 kts | 101° |
| 2026-04-21 17:26 | 34.01363 | -118.49266 | 7642 ft | 260 kts | 101° |
| 2026-04-21 17:26 | 34.01165 | -118.47152 | 7430 ft | 251 kts | 101° |
| 2026-04-21 17:26 | 34.00979 | -118.45071 | 7176 ft | 247 kts | 98° |
| 2026-04-21 17:26 | 34.00969 | -118.43025 | 6894 ft | 247 kts | 89° |
| 2026-04-21 17:27 | 34.01194 | -118.40982 | 6672 ft | 245 kts | 83° |
| 2026-04-21 17:27 | 34.01508 | -118.38969 | 6330 ft | 246 kts | 82° |
| 2026-04-21 17:27 | 34.01835 | -118.36955 | 6054 ft | 244 kts | 81° |
| 2026-04-21 17:27 | 34.02158 | -118.34965 | 5780 ft | 241 kts | 82° |
| 2026-04-21 17:28 | 34.02474 | -118.32996 | 5512 ft | 239 kts | 82° |
| 2026-04-21 17:28 | 34.02787 | -118.31033 | 5234 ft | 236 kts | 82° |
| 2026-04-21 17:28 | 34.03095 | -118.29092 | 5012 ft | 232 kts | 82° |
| 2026-04-21 17:28 | 34.03398 | -118.27177 | 4911 ft | 230 kts | 82° |
| 2026-04-21 17:29 | 34.03697 | -118.25297 | 4608 ft | 230 kts | 82° |
| 2026-04-21 17:29 | 34.03995 | -118.23403 | 4314 ft | 229 kts | 82° |
| 2026-04-21 17:29 | 34.04245 | -118.21592 | 4319 ft | 208 kts | 88° |
| 2026-04-21 17:29 | 34.03952 | -118.19934 | 3894 ft | 206 kts | 122° |
| 2026-04-21 17:30 | 34.03000 | -118.18681 | 3503 ft | 202 kts | 146° |
| 2026-04-21 17:30 | 34.01702 | -118.18216 | 3183 ft | 196 kts | 179° |
| 2026-04-21 17:30 | 34.00348 | -118.18430 | 2840 ft | 196 kts | 190° |
| 2026-04-21 17:30 | 33.99082 | -118.18993 | 2593 ft | 196 kts | 212° |
| 2026-04-21 17:31 | 33.98018 | -118.20055 | 2596 ft | 198 kts | 221° |
| 2026-04-21 17:31 | 33.97261 | -118.21429 | 2575 ft | 201 kts | 246° |
| 2026-04-21 17:31 | 33.96932 | -118.23065 | 2577 ft | 203 kts | 259° |
| 2026-04-21 17:31 | 33.96778 | -118.24765 | 2551 ft | 204 kts | 263° |
| 2026-04-21 17:32 | 33.96639 | -118.26510 | 2361 ft | 217 kts | 262° |
| 2026-04-21 17:32 | 33.96456 | -118.28353 | 2051 ft | 219 kts | 261° |
| 2026-04-21 17:32 | 33.96271 | -118.30077 | 1755 ft | 201 kts | 260° |
| 2026-04-21 17:32 | 33.96102 | -118.31657 | 1548 ft | 180 kts | 261° |
| 2026-04-21 17:33 | 33.95952 | -118.33096 | 1289 ft | 166 kts | 260° |
| 2026-04-21 17:33 | 33.95813 | -118.34422 | 1052 ft | 152 kts | 260° |
| 2026-04-21 17:33 | 33.95683 | -118.35653 | 848 ft | 145 kts | 260° |
| 2026-04-21 17:33 | 33.95557 | -118.36865 | 673 ft | 147 kts | 261° |
| 2026-04-21 17:34 | 33.95433 | -118.38077 | 496 ft | 148 kts | 261° |
| 2026-04-21 17:34 | 33.95303 | -118.39313 | 302 ft | 148 kts | 261° |
| 2026-04-21 17:34 | 33.95176 | -118.40548 | 125 ft | 145 kts | 261° |
| 2026-04-21 17:34 | 33.95066 | -118.41621 | 124 ft | 108 kts | 262° |
| 2026-04-21 17:35 | 33.94989 | -118.42264 | 120 ft | 44 kts | 248° |
| 2026-04-21 17:35 | 33.94886 | -118.42446 | 117 ft | 9 kts | 226° |
| 2026-04-21 17:35 | 33.94875 | -118.42460 | 117 ft | 0 kts | 224° |
| 2026-04-21 17:37 | 33.94860 | -118.42476 | 117 ft | 11 kts | 221° |
| 2026-04-21 17:37 | 33.94776 | -118.42489 | 116 ft | 14 kts | 172° |
| 2026-04-21 17:37 | 33.94673 | -118.42498 | 114 ft | 16 kts | 223° |
| 2026-04-21 17:37 | 33.94642 | -118.42637 | 111 ft | 18 kts | 264° |
| 2026-04-21 17:38 | 33.94628 | -118.42778 | 110 ft | 15 kts | 262° |
| 2026-04-21 17:38 | 33.94616 | -118.42909 | 108 ft | 16 kts | 265° |
| 2026-04-21 17:38 | 33.94605 | -118.43050 | 106 ft | 15 kts | 264° |
| 2026-04-21 17:38 | 33.94572 | -118.43114 | 105 ft | 9 kts | 190° |
| 2026-04-21 17:39 | 33.94507 | -118.43098 | 104 ft | 8 kts | 111° |
| 2026-04-21 17:39 | 33.94508 | -118.43074 | 104 ft | 3 kts | 91° |
| 2026-04-21 17:39 | 33.94513 | -118.43045 | 104 ft | 4 kts | 81° |
| 2026-04-21 17:39 | 33.94516 | -118.43010 | 104 ft | 2 kts | 83° |
| 2026-04-21 17:40 | 33.94517 | -118.43005 | 104 ft | 0 kts | 84° |